sensor_id;sensor_type;location;lat;lon;timestamp;temperature;humidity
51655;DHT22;37732;53.106;7.030;2022-12-18T00:02:17;-2.80;99.90
51655;DHT22;37732;53.106;7.030;2022-12-18T00:04:43;-3.20;99.90
51655;DHT22;37732;53.106;7.030;2022-12-18T00:07:08;-3.20;99.90
51655;DHT22;37732;53.106;7.030;2022-12-18T00:09:34;-3.10;99.90
51655;DHT22;37732;53.106;7.030;2022-12-18T00:12:00;-3.10;99.90
51655;DHT22;37732;53.106;7.030;2022-12-18T00:14:25;-2.00;99.90
51655;DHT22;37732;53.106;7.030;2022-12-18T00:16:51;-3.10;99.90
51655;DHT22;37732;53.106;7.030;2022-12-18T00:19:16;-1.70;99.90
51655;DHT22;37732;53.106;7.030;2022-12-18T00:21:43;-3.10;99.90
51655;DHT22;37732;53.106;7.030;2022-12-18T00:24:09;-3.10;99.90
51655;DHT22;37732;53.106;7.030;2022-12-18T00:26:37;-3.10;99.90
51655;DHT22;37732;53.106;7.030;2022-12-18T00:29:14;-3.10;99.90
51655;DHT22;37732;53.106;7.030;2022-12-18T00:31:40;-3.10;99.90
51655;DHT22;37732;53.106;7.030;2022-12-18T00:34:10;-2.90;99.90
51655;DHT22;37732;53.106;7.030;2022-12-18T00:36:36;-3.10;99.90
51655;DHT22;37732;53.106;7.030;2022-12-18T00:39:03;-2.00;99.90
51655;DHT22;37732;53.106;7.030;2022-12-18T00:41:29;-3.20;99.90
51655;DHT22;37732;53.106;7.030;2022-12-18T00:44:14;-3.20;99.90
51655;DHT22;37732;53.106;7.030;2022-12-18T00:46:42;-3.20;99.90
51655;DHT22;37732;53.106;7.030;2022-12-18T00:49:08;-3.20;99.90
51655;DHT22;37732;53.106;7.030;2022-12-18T00:51:34;-3.20;99.90
51655;DHT22;37732;53.106;7.030;2022-12-18T00:54:00;-3.10;99.90
51655;DHT22;37732;53.106;7.030;2022-12-18T00:56:26;-2.20;99.90
51655;DHT22;37732;53.106;7.030;2022-12-18T00:58:51;-3.20;99.90
51655;DHT22;37732;53.106;7.030;2022-12-18T01:01:17;-3.20;99.90
51655;DHT22;37732;53.106;7.030;2022-12-18T01:03:43;-3.30;99.90
51655;DHT22;37732;53.106;7.030;2022-12-18T01:06:12;-2.00;99.90
51655;DHT22;37732;53.106;7.030;2022-12-18T01:08:38;-3.30;99.90
51655;DHT22;37732;53.106;7.030;2022-12-18T01:11:15;-2.30;99.90
51655;DHT22;37732;53.106;7.030;2022-12-18T01:13:42;-3.30;99.90
51655;DHT22;37732;53.106;7.030;2022-12-18T01:16:10;-3.30;99.90
51655;DHT22;37732;53.106;7.030;2022-12-18T01:18:36;-4.50;99.90
51655;DHT22;37732;53.106;7.030;2022-12-18T01:21:06;-3.30;99.90
51655;DHT22;37732;53.106;7.030;2022-12-18T01:23:32;-3.30;99.90
51655;DHT22;37732;53.106;7.030;2022-12-18T01:26:03;-3.30;99.90
51655;DHT22;37732;53.106;7.030;2022-12-18T01:28:28;-3.40;99.90
51655;DHT22;37732;53.106;7.030;2022-12-18T01:30:54;-3.40;99.90
51655;DHT22;37732;53.106;7.030;2022-12-18T01:33:20;-3.40;99.90
51655;DHT22;37732;53.106;7.030;2022-12-18T01:35:45;-3.40;99.90
51655;DHT22;37732;53.106;7.030;2022-12-18T01:38:11;-3.00;99.90
51655;DHT22;37732;53.106;7.030;2022-12-18T01:40:38;-3.40;99.90
51655;DHT22;37732;53.106;7.030;2022-12-18T01:43:03;-2.80;99.90
51655;DHT22;37732;53.106;7.030;2022-12-18T01:45:30;-3.40;99.90
51655;DHT22;37732;53.106;7.030;2022-12-18T01:47:59;-3.40;99.90
51655;DHT22;37732;53.106;7.030;2022-12-18T01:50:38;-3.40;99.90
51655;DHT22;37732;53.106;7.030;2022-12-18T01:53:17;-3.50;99.90
51655;DHT22;37732;53.106;7.030;2022-12-18T01:55:47;-2.60;99.90
51655;DHT22;37732;53.106;7.030;2022-12-18T01:58:14;-3.60;99.90
51655;DHT22;37732;53.106;7.030;2022-12-18T02:03:15;-3.60;99.90
51655;DHT22;37732;53.106;7.030;2022-12-18T02:08:37;-3.70;99.90
51655;DHT22;37732;53.106;7.030;2022-12-18T02:11:13;-3.70;99.90
51655;DHT22;37732;53.106;7.030;2022-12-18T02:19:44;-3.90;99.90
51655;DHT22;37732;53.106;7.030;2022-12-18T02:24:59;-4.00;99.90
51655;DHT22;37732;53.106;7.030;2022-12-18T02:27:27;-4.10;99.90
51655;DHT22;37732;53.106;7.030;2022-12-18T02:29:55;-4.10;99.90
51655;DHT22;37732;53.106;7.030;2022-12-18T02:32:26;-4.10;99.90
51655;DHT22;37732;53.106;7.030;2022-12-18T02:34:55;-4.10;99.90
51655;DHT22;37732;53.106;7.030;2022-12-18T02:37:22;-4.10;99.90
51655;DHT22;37732;53.106;7.030;2022-12-18T02:39:49;-4.10;99.90
51655;DHT22;37732;53.106;7.030;2022-12-18T02:42:17;-4.20;99.90
51655;DHT22;37732;53.106;7.030;2022-12-18T02:44:49;-4.30;99.90
51655;DHT22;37732;53.106;7.030;2022-12-18T02:47:18;-4.30;99.90
51655;DHT22;37732;53.106;7.030;2022-12-18T02:50:10;-3.40;99.90
51655;DHT22;37732;53.106;7.030;2022-12-18T02:57:44;-4.40;99.90
51655;DHT22;37732;53.106;7.030;2022-12-18T03:00:24;-4.40;99.90
51655;DHT22;37732;53.106;7.030;2022-12-18T03:06:06;-4.40;99.90
51655;DHT22;37732;53.106;7.030;2022-12-18T03:08:57;-4.50;99.90
51655;DHT22;37732;53.106;7.030;2022-12-18T03:11:24;-4.50;99.90
51655;DHT22;37732;53.106;7.030;2022-12-18T03:14:13;-4.60;99.90
51655;DHT22;37732;53.106;7.030;2022-12-18T03:16:41;-4.70;99.90
51655;DHT22;37732;53.106;7.030;2022-12-18T03:19:13;-4.70;99.90
51655;DHT22;37732;53.106;7.030;2022-12-18T03:21:43;-4.60;99.90
51655;DHT22;37732;53.106;7.030;2022-12-18T03:24:11;-4.70;99.90
51655;DHT22;37732;53.106;7.030;2022-12-18T03:26:40;-4.70;99.90
51655;DHT22;37732;53.106;7.030;2022-12-18T03:29:12;-4.80;99.90
51655;DHT22;37732;53.106;7.030;2022-12-18T03:31:43;-4.90;99.90
51655;DHT22;37732;53.106;7.030;2022-12-18T03:34:17;-4.90;99.90
51655;DHT22;37732;53.106;7.030;2022-12-18T03:36:43;-5.00;99.90
51655;DHT22;37732;53.106;7.030;2022-12-18T03:39:09;-5.00;99.90
51655;DHT22;37732;53.106;7.030;2022-12-18T03:41:50;-5.00;99.90
51655;DHT22;37732;53.106;7.030;2022-12-18T03:47:15;-5.10;99.90
51655;DHT22;37732;53.106;7.030;2022-12-18T03:49:55;-5.10;99.90
51655;DHT22;37732;53.106;7.030;2022-12-18T03:52:27;-5.10;99.90
51655;DHT22;37732;53.106;7.030;2022-12-18T03:54:56;-5.10;99.90
51655;DHT22;37732;53.106;7.030;2022-12-18T03:57:26;-5.10;99.90
51655;DHT22;37732;53.106;7.030;2022-12-18T04:00:06;-5.10;99.90
51655;DHT22;37732;53.106;7.030;2022-12-18T04:02:34;-5.10;99.90
51655;DHT22;37732;53.106;7.030;2022-12-18T04:05:03;-5.10;99.90
51655;DHT22;37732;53.106;7.030;2022-12-18T04:07:30;-5.20;99.90
51655;DHT22;37732;53.106;7.030;2022-12-18T04:09:58;-5.20;99.90
51655;DHT22;37732;53.106;7.030;2022-12-18T04:12:25;-5.20;99.90
51655;DHT22;37732;53.106;7.030;2022-12-18T04:14:51;-5.30;99.90
51655;DHT22;37732;53.106;7.030;2022-12-18T04:17:17;-5.40;99.90
51655;DHT22;37732;53.106;7.030;2022-12-18T04:19:43;-5.40;99.90
51655;DHT22;37732;53.106;7.030;2022-12-18T04:22:10;-5.50;99.90
51655;DHT22;37732;53.106;7.030;2022-12-18T04:24:36;-5.50;99.90
51655;DHT22;37732;53.106;7.030;2022-12-18T04:27:02;-5.60;99.90
51655;DHT22;37732;53.106;7.030;2022-12-18T04:29:27;-5.60;99.90
51655;DHT22;37732;53.106;7.030;2022-12-18T04:31:53;-5.60;99.90
51655;DHT22;37732;53.106;7.030;2022-12-18T04:34:20;-5.60;99.90
51655;DHT22;37732;53.106;7.030;2022-12-18T04:36:45;-5.60;99.90
51655;DHT22;37732;53.106;7.030;2022-12-18T04:39:11;-5.70;99.90
51655;DHT22;37732;53.106;7.030;2022-12-18T04:41:37;-5.70;99.90
51655;DHT22;37732;53.106;7.030;2022-12-18T04:44:03;-5.70;99.90
51655;DHT22;37732;53.106;7.030;2022-12-18T04:46:28;-5.70;99.90
51655;DHT22;37732;53.106;7.030;2022-12-18T04:48:54;-5.70;99.90
51655;DHT22;37732;53.106;7.030;2022-12-18T04:51:20;-5.70;99.90
51655;DHT22;37732;53.106;7.030;2022-12-18T04:53:46;-5.70;99.90
51655;DHT22;37732;53.106;7.030;2022-12-18T04:56:13;-5.80;99.90
51655;DHT22;37732;53.106;7.030;2022-12-18T04:58:41;-5.70;99.90
51655;DHT22;37732;53.106;7.030;2022-12-18T05:01:07;-5.80;99.90
51655;DHT22;37732;53.106;7.030;2022-12-18T05:03:34;-5.80;99.90
51655;DHT22;37732;53.106;7.030;2022-12-18T05:06:00;-5.80;99.90
51655;DHT22;37732;53.106;7.030;2022-12-18T05:08:26;-5.80;99.90
51655;DHT22;37732;53.106;7.030;2022-12-18T05:11:04;-5.80;99.90
51655;DHT22;37732;53.106;7.030;2022-12-18T05:13:30;-5.80;99.90
51655;DHT22;37732;53.106;7.030;2022-12-18T05:15:56;-5.90;99.90
51655;DHT22;37732;53.106;7.030;2022-12-18T05:18:23;-5.90;99.90
51655;DHT22;37732;53.106;7.030;2022-12-18T05:20:50;-5.90;99.90
51655;DHT22;37732;53.106;7.030;2022-12-18T05:23:16;-5.90;99.90
51655;DHT22;37732;53.106;7.030;2022-12-18T05:25:42;-5.90;99.90
51655;DHT22;37732;53.106;7.030;2022-12-18T05:28:08;-5.90;99.90
51655;DHT22;37732;53.106;7.030;2022-12-18T05:30:33;-6.00;99.90
51655;DHT22;37732;53.106;7.030;2022-12-18T05:32:59;-6.00;99.90
51655;DHT22;37732;53.106;7.030;2022-12-18T05:35:24;-5.90;99.90
51655;DHT22;37732;53.106;7.030;2022-12-18T05:37:50;-5.90;99.90
51655;DHT22;37732;53.106;7.030;2022-12-18T05:40:16;-5.90;99.90
51655;DHT22;37732;53.106;7.030;2022-12-18T05:42:41;-4.40;99.90
51655;DHT22;37732;53.106;7.030;2022-12-18T05:45:07;-4.70;99.90
51655;DHT22;37732;53.106;7.030;2022-12-18T05:47:33;-6.00;99.90
51655;DHT22;37732;53.106;7.030;2022-12-18T05:49:59;-6.00;99.90
51655;DHT22;37732;53.106;7.030;2022-12-18T05:52:24;-6.00;99.90
51655;DHT22;37732;53.106;7.030;2022-12-18T05:54:50;-6.10;99.90
51655;DHT22;37732;53.106;7.030;2022-12-18T05:57:15;-6.10;99.90
51655;DHT22;37732;53.106;7.030;2022-12-18T05:59:41;-6.10;99.90
51655;DHT22;37732;53.106;7.030;2022-12-18T06:02:07;-6.10;99.90
51655;DHT22;37732;53.106;7.030;2022-12-18T06:04:33;-6.10;99.90
51655;DHT22;37732;53.106;7.030;2022-12-18T06:06:59;-6.20;99.90
51655;DHT22;37732;53.106;7.030;2022-12-18T06:09:24;-6.20;99.90
51655;DHT22;37732;53.106;7.030;2022-12-18T06:11:51;-6.20;99.90
51655;DHT22;37732;53.106;7.030;2022-12-18T06:14:17;-6.20;99.90
51655;DHT22;37732;53.106;7.030;2022-12-18T06:16:43;-6.30;99.90
51655;DHT22;37732;53.106;7.030;2022-12-18T06:19:16;-6.20;99.90
51655;DHT22;37732;53.106;7.030;2022-12-18T06:21:42;-6.20;99.90
51655;DHT22;37732;53.106;7.030;2022-12-18T06:24:08;-6.30;99.90
51655;DHT22;37732;53.106;7.030;2022-12-18T06:26:33;-6.30;99.90
51655;DHT22;37732;53.106;7.030;2022-12-18T06:28:59;-6.30;99.90
51655;DHT22;37732;53.106;7.030;2022-12-18T06:31:25;-6.30;99.90
51655;DHT22;37732;53.106;7.030;2022-12-18T06:33:51;-6.40;99.90
51655;DHT22;37732;53.106;7.030;2022-12-18T06:36:17;-6.40;99.90
51655;DHT22;37732;53.106;7.030;2022-12-18T06:38:43;-6.40;99.90
51655;DHT22;37732;53.106;7.030;2022-12-18T06:41:10;-6.40;99.90
51655;DHT22;37732;53.106;7.030;2022-12-18T06:43:35;-6.40;99.90
51655;DHT22;37732;53.106;7.030;2022-12-18T06:46:03;-6.50;99.90
51655;DHT22;37732;53.106;7.030;2022-12-18T06:48:29;-5.90;99.90
51655;DHT22;37732;53.106;7.030;2022-12-18T06:50:55;-6.50;99.90
51655;DHT22;37732;53.106;7.030;2022-12-18T06:53:20;-6.50;99.90
51655;DHT22;37732;53.106;7.030;2022-12-18T06:55:47;-6.50;99.90
51655;DHT22;37732;53.106;7.030;2022-12-18T06:58:13;-6.50;99.90
51655;DHT22;37732;53.106;7.030;2022-12-18T07:00:38;-6.50;99.90
51655;DHT22;37732;53.106;7.030;2022-12-18T07:03:04;-6.50;99.90
51655;DHT22;37732;53.106;7.030;2022-12-18T07:05:30;-6.50;99.90
51655;DHT22;37732;53.106;7.030;2022-12-18T07:07:55;-6.60;99.90
51655;DHT22;37732;53.106;7.030;2022-12-18T07:10:21;-6.60;99.90
51655;DHT22;37732;53.106;7.030;2022-12-18T07:12:47;-6.60;99.90
51655;DHT22;37732;53.106;7.030;2022-12-18T07:15:12;-6.60;99.90
51655;DHT22;37732;53.106;7.030;2022-12-18T07:17:38;-6.40;99.90
51655;DHT22;37732;53.106;7.030;2022-12-18T07:20:04;-6.70;99.90
51655;DHT22;37732;53.106;7.030;2022-12-18T07:22:30;-6.70;99.90
51655;DHT22;37732;53.106;7.030;2022-12-18T07:24:55;-6.70;99.90
51655;DHT22;37732;53.106;7.030;2022-12-18T07:27:22;-6.70;99.90
51655;DHT22;37732;53.106;7.030;2022-12-18T07:29:47;-6.70;99.90
51655;DHT22;37732;53.106;7.030;2022-12-18T07:32:13;-6.70;99.90
51655;DHT22;37732;53.106;7.030;2022-12-18T07:34:39;-6.70;99.90
51655;DHT22;37732;53.106;7.030;2022-12-18T07:37:05;-6.70;99.90
51655;DHT22;37732;53.106;7.030;2022-12-18T07:39:31;-6.60;99.90
51655;DHT22;37732;53.106;7.030;2022-12-18T07:41:56;-6.60;99.90
51655;DHT22;37732;53.106;7.030;2022-12-18T07:44:40;-6.60;99.90
51655;DHT22;37732;53.106;7.030;2022-12-18T07:47:06;-6.60;99.90
51655;DHT22;37732;53.106;7.030;2022-12-18T07:49:32;-6.60;99.90
51655;DHT22;37732;53.106;7.030;2022-12-18T07:51:58;-6.60;99.90
51655;DHT22;37732;53.106;7.030;2022-12-18T07:54:24;-6.60;99.90
51655;DHT22;37732;53.106;7.030;2022-12-18T07:56:51;-6.60;99.90
51655;DHT22;37732;53.106;7.030;2022-12-18T07:59:17;-6.60;99.90
51655;DHT22;37732;53.106;7.030;2022-12-18T08:01:43;-6.60;99.90
51655;DHT22;37732;53.106;7.030;2022-12-18T08:04:09;-6.60;99.90
51655;DHT22;37732;53.106;7.030;2022-12-18T08:06:35;-6.60;99.90
51655;DHT22;37732;53.106;7.030;2022-12-18T08:09:00;-6.50;99.90
51655;DHT22;37732;53.106;7.030;2022-12-18T08:11:27;-6.60;99.90
51655;DHT22;37732;53.106;7.030;2022-12-18T08:13:53;-6.40;99.90
51655;DHT22;37732;53.106;7.030;2022-12-18T08:16:19;-6.40;99.90
51655;DHT22;37732;53.106;7.030;2022-12-18T08:18:45;-5.90;99.90
51655;DHT22;37732;53.106;7.030;2022-12-18T08:21:20;-6.30;99.90
51655;DHT22;37732;53.106;7.030;2022-12-18T08:23:49;-6.20;99.90
51655;DHT22;37732;53.106;7.030;2022-12-18T08:26:15;-6.10;99.90
51655;DHT22;37732;53.106;7.030;2022-12-18T08:28:41;-6.10;99.90
51655;DHT22;37732;53.106;7.030;2022-12-18T08:31:07;-6.00;99.90
51655;DHT22;37732;53.106;7.030;2022-12-18T08:33:34;-6.00;99.90
51655;DHT22;37732;53.106;7.030;2022-12-18T08:36:01;-6.00;99.90
51655;DHT22;37732;53.106;7.030;2022-12-18T08:38:27;-6.00;99.90
51655;DHT22;37732;53.106;7.030;2022-12-18T08:41:03;-5.90;99.90
51655;DHT22;37732;53.106;7.030;2022-12-18T08:43:29;-5.90;99.90
51655;DHT22;37732;53.106;7.030;2022-12-18T08:46:14;-5.90;99.90
51655;DHT22;37732;53.106;7.030;2022-12-18T08:48:39;-5.80;99.90
51655;DHT22;37732;53.106;7.030;2022-12-18T08:51:05;-5.80;99.90
51655;DHT22;37732;53.106;7.030;2022-12-18T08:53:30;-5.80;99.90
51655;DHT22;37732;53.106;7.030;2022-12-18T08:55:56;-5.70;99.90
51655;DHT22;37732;53.106;7.030;2022-12-18T08:58:22;-5.60;99.90
51655;DHT22;37732;53.106;7.030;2022-12-18T09:00:48;-5.50;99.90
51655;DHT22;37732;53.106;7.030;2022-12-18T09:03:15;-5.50;99.90
51655;DHT22;37732;53.106;7.030;2022-12-18T09:05:41;-5.40;99.90
51655;DHT22;37732;53.106;7.030;2022-12-18T09:08:07;-5.40;99.90
51655;DHT22;37732;53.106;7.030;2022-12-18T09:10:33;-5.40;99.90
51655;DHT22;37732;53.106;7.030;2022-12-18T09:12:59;-5.30;99.90
51655;DHT22;37732;53.106;7.030;2022-12-18T09:15:24;-5.20;99.90
51655;DHT22;37732;53.106;7.030;2022-12-18T09:17:50;-5.20;99.90
51655;DHT22;37732;53.106;7.030;2022-12-18T09:20:18;-5.10;99.90
51655;DHT22;37732;53.106;7.030;2022-12-18T09:22:44;-5.00;99.90
51655;DHT22;37732;53.106;7.030;2022-12-18T09:25:10;-5.00;99.90
51655;DHT22;37732;53.106;7.030;2022-12-18T09:27:36;-4.90;99.90
51655;DHT22;37732;53.106;7.030;2022-12-18T09:30:02;-4.80;99.90
51655;DHT22;37732;53.106;7.030;2022-12-18T09:32:27;-4.80;99.90
51655;DHT22;37732;53.106;7.030;2022-12-18T09:34:53;-4.70;99.90
51655;DHT22;37732;53.106;7.030;2022-12-18T09:37:18;-4.60;99.90
51655;DHT22;37732;53.106;7.030;2022-12-18T09:39:44;-4.60;99.90
51655;DHT22;37732;53.106;7.030;2022-12-18T09:42:29;-4.50;99.90
51655;DHT22;37732;53.106;7.030;2022-12-18T09:44:55;-4.40;99.90
51655;DHT22;37732;53.106;7.030;2022-12-18T09:47:28;-4.30;99.90
51655;DHT22;37732;53.106;7.030;2022-12-18T09:50:02;-4.20;99.90
51655;DHT22;37732;53.106;7.030;2022-12-18T09:52:34;-4.20;99.90
51655;DHT22;37732;53.106;7.030;2022-12-18T09:55:09;-4.10;99.90
51655;DHT22;37732;53.106;7.030;2022-12-18T09:57:42;-4.00;99.90
51655;DHT22;37732;53.106;7.030;2022-12-18T10:00:20;-3.90;99.90
51655;DHT22;37732;53.106;7.030;2022-12-18T10:02:46;-3.50;99.90
51655;DHT22;37732;53.106;7.030;2022-12-18T10:05:17;-3.80;99.90
51655;DHT22;37732;53.106;7.030;2022-12-18T10:07:53;-3.70;99.90
51655;DHT22;37732;53.106;7.030;2022-12-18T10:10:37;-3.70;99.90
51655;DHT22;37732;53.106;7.030;2022-12-18T10:19:00;-3.60;99.90
51655;DHT22;37732;53.106;7.030;2022-12-18T10:21:49;-3.60;99.90
51655;DHT22;37732;53.106;7.030;2022-12-18T10:27:15;-3.40;99.90
51655;DHT22;37732;53.106;7.030;2022-12-18T10:29:43;-3.30;99.90
51655;DHT22;37732;53.106;7.030;2022-12-18T10:32:35;-3.20;99.90
51655;DHT22;37732;53.106;7.030;2022-12-18T10:35:00;-3.10;99.90
51655;DHT22;37732;53.106;7.030;2022-12-18T10:37:28;-3.00;99.90
51655;DHT22;37732;53.106;7.030;2022-12-18T10:40:20;-2.80;99.90
51655;DHT22;37732;53.106;7.030;2022-12-18T10:43:13;-2.70;99.90
51655;DHT22;37732;53.106;7.030;2022-12-18T10:45:40;-2.60;99.90
51655;DHT22;37732;53.106;7.030;2022-12-18T10:48:21;-2.60;99.90
51655;DHT22;37732;53.106;7.030;2022-12-18T10:50:49;-2.60;99.90
51655;DHT22;37732;53.106;7.030;2022-12-18T10:53:25;-2.50;99.90
51655;DHT22;37732;53.106;7.030;2022-12-18T10:55:53;-2.50;99.90
51655;DHT22;37732;53.106;7.030;2022-12-18T10:58:32;-2.50;99.90
51655;DHT22;37732;53.106;7.030;2022-12-18T11:03:32;-2.40;99.90
51655;DHT22;37732;53.106;7.030;2022-12-18T11:06:18;-2.40;99.90
51655;DHT22;37732;53.106;7.030;2022-12-18T11:09:04;-2.40;99.90
51655;DHT22;37732;53.106;7.030;2022-12-18T11:11:32;-2.40;99.90
51655;DHT22;37732;53.106;7.030;2022-12-18T11:14:18;-2.30;99.90
51655;DHT22;37732;53.106;7.030;2022-12-18T11:16:48;-2.30;99.90
51655;DHT22;37732;53.106;7.030;2022-12-18T11:19:34;-2.30;99.90
51655;DHT22;37732;53.106;7.030;2022-12-18T11:22:03;-2.20;99.90
51655;DHT22;37732;53.106;7.030;2022-12-18T11:24:42;-2.20;99.90
51655;DHT22;37732;53.106;7.030;2022-12-18T11:27:18;-2.20;99.90
51655;DHT22;37732;53.106;7.030;2022-12-18T11:29:44;-2.10;99.90
51655;DHT22;37732;53.106;7.030;2022-12-18T11:38:04;-2.00;99.90
51655;DHT22;37732;53.106;7.030;2022-12-18T11:40:35;-2.00;99.90
51655;DHT22;37732;53.106;7.030;2022-12-18T11:45:34;-1.90;99.90
51655;DHT22;37732;53.106;7.030;2022-12-18T11:48:06;-1.90;99.90
51655;DHT22;37732;53.106;7.030;2022-12-18T11:53:12;-1.80;99.90
51655;DHT22;37732;53.106;7.030;2022-12-18T11:56:01;-1.80;99.90
51655;DHT22;37732;53.106;7.030;2022-12-18T12:10:06;-1.60;99.90
51655;DHT22;37732;53.106;7.030;2022-12-18T12:23:36;-1.50;99.90
51655;DHT22;37732;53.106;7.030;2022-12-18T12:26:16;-1.00;99.90
51655;DHT22;37732;53.106;7.030;2022-12-18T12:32:05;-1.40;99.90
51655;DHT22;37732;53.106;7.030;2022-12-18T12:38:04;-1.30;99.90
51655;DHT22;37732;53.106;7.030;2022-12-18T12:40:35;-1.30;99.90
51655;DHT22;37732;53.106;7.030;2022-12-18T12:48:40;-1.30;99.90
51655;DHT22;37732;53.106;7.030;2022-12-18T12:51:33;-1.20;99.90
51655;DHT22;37732;53.106;7.030;2022-12-18T12:54:01;-1.20;99.90
51655;DHT22;37732;53.106;7.030;2022-12-18T12:59:24;-1.20;99.90
51655;DHT22;37732;53.106;7.030;2022-12-18T13:02:24;-1.20;99.90
51655;DHT22;37732;53.106;7.030;2022-12-18T13:05:09;-1.20;99.90
51655;DHT22;37732;53.106;7.030;2022-12-18T13:07:49;-1.10;99.90
51655;DHT22;37732;53.106;7.030;2022-12-18T13:13:06;-1.10;99.90
51655;DHT22;37732;53.106;7.030;2022-12-18T13:18:24;-1.20;99.90
51655;DHT22;37732;53.106;7.030;2022-12-18T13:20:58;-0.10;99.90
51655;DHT22;37732;53.106;7.030;2022-12-18T13:23:34;-1.10;99.90
51655;DHT22;37732;53.106;7.030;2022-12-18T13:31:12;-1.10;99.90
51655;DHT22;37732;53.106;7.030;2022-12-18T13:33:46;-1.10;99.90
51655;DHT22;37732;53.106;7.030;2022-12-18T13:38:38;-1.10;99.90
51655;DHT22;37732;53.106;7.030;2022-12-18T13:41:25;-1.10;99.90
51655;DHT22;37732;53.106;7.030;2022-12-18T13:43:53;-1.10;99.90
51655;DHT22;37732;53.106;7.030;2022-12-18T13:51:45;-0.80;99.90
51655;DHT22;37732;53.106;7.030;2022-12-18T13:54:37;0.30;99.90
51655;DHT22;37732;53.106;7.030;2022-12-18T13:57:06;-1.00;99.90
51655;DHT22;37732;53.106;7.030;2022-12-18T13:59:50;-1.10;99.90
51655;DHT22;37732;53.106;7.030;2022-12-18T14:02:21;-1.10;99.90
51655;DHT22;37732;53.106;7.030;2022-12-18T14:04:48;-1.10;99.90
51655;DHT22;37732;53.106;7.030;2022-12-18T14:07:19;-1.10;99.90
51655;DHT22;37732;53.106;7.030;2022-12-18T14:09:54;-1.20;99.90
51655;DHT22;37732;53.106;7.030;2022-12-18T14:12:25;-1.20;99.90
51655;DHT22;37732;53.106;7.030;2022-12-18T14:15:33;-1.20;99.90
51655;DHT22;37732;53.106;7.030;2022-12-18T14:18:22;-1.20;99.90
51655;DHT22;37732;53.106;7.030;2022-12-18T14:20:54;-1.30;99.90
51655;DHT22;37732;53.106;7.030;2022-12-18T14:26:02;-1.30;99.90
51655;DHT22;37732;53.106;7.030;2022-12-18T14:28:28;-1.40;99.90
51655;DHT22;37732;53.106;7.030;2022-12-18T14:30:55;-1.30;99.90
51655;DHT22;37732;53.106;7.030;2022-12-18T14:33:24;-1.40;99.90
51655;DHT22;37732;53.106;7.030;2022-12-18T14:36:02;-1.40;99.90
51655;DHT22;37732;53.106;7.030;2022-12-18T14:43:26;-1.50;99.90
51655;DHT22;37732;53.106;7.030;2022-12-18T14:45:53;-1.50;99.90
51655;DHT22;37732;53.106;7.030;2022-12-18T14:51:05;-1.50;99.90
51655;DHT22;37732;53.106;7.030;2022-12-18T14:53:38;-1.60;99.90
51655;DHT22;37732;53.106;7.030;2022-12-18T14:56:20;-1.60;99.90
51655;DHT22;37732;53.106;7.030;2022-12-18T14:58:48;-1.60;99.90
51655;DHT22;37732;53.106;7.030;2022-12-18T15:01:22;-1.60;99.90
51655;DHT22;37732;53.106;7.030;2022-12-18T15:03:51;-1.60;99.90
51655;DHT22;37732;53.106;7.030;2022-12-18T15:06:21;-1.60;99.90
51655;DHT22;37732;53.106;7.030;2022-12-18T15:08:49;-1.60;99.90
51655;DHT22;37732;53.106;7.030;2022-12-18T15:11:42;-1.60;99.90
51655;DHT22;37732;53.106;7.030;2022-12-18T15:14:35;-1.60;99.90
51655;DHT22;37732;53.106;7.030;2022-12-18T15:17:40;-1.60;99.90
51655;DHT22;37732;53.106;7.030;2022-12-18T15:20:01;-1.60;99.90
51655;DHT22;37732;53.106;7.030;2022-12-18T15:22:36;-1.60;99.90
51655;DHT22;37732;53.106;7.030;2022-12-18T15:25:04;-1.60;99.90
51655;DHT22;37732;53.106;7.030;2022-12-18T15:27:47;-1.60;99.90
51655;DHT22;37732;53.106;7.030;2022-12-18T15:30:19;-1.60;99.90
51655;DHT22;37732;53.106;7.030;2022-12-18T15:32:46;-1.60;99.90
51655;DHT22;37732;53.106;7.030;2022-12-18T15:37:45;-1.60;99.90
51655;DHT22;37732;53.106;7.030;2022-12-18T15:40:19;-1.50;99.90
51655;DHT22;37732;53.106;7.030;2022-12-18T15:42:45;-1.50;99.90
51655;DHT22;37732;53.106;7.030;2022-12-18T15:45:30;-1.60;99.90
51655;DHT22;37732;53.106;7.030;2022-12-18T15:47:56;-1.60;99.90
51655;DHT22;37732;53.106;7.030;2022-12-18T15:50:22;-1.50;99.90
51655;DHT22;37732;53.106;7.030;2022-12-18T15:52:50;-1.50;99.90
51655;DHT22;37732;53.106;7.030;2022-12-18T15:55:20;-1.50;99.90
51655;DHT22;37732;53.106;7.030;2022-12-18T15:58:06;-1.50;99.90
51655;DHT22;37732;53.106;7.030;2022-12-18T16:00:33;-0.80;99.90
51655;DHT22;37732;53.106;7.030;2022-12-18T16:03:00;-1.50;99.90
51655;DHT22;37732;53.106;7.030;2022-12-18T16:05:27;-1.50;99.90
51655;DHT22;37732;53.106;7.030;2022-12-18T16:07:53;-1.50;99.90
51655;DHT22;37732;53.106;7.030;2022-12-18T16:10:19;-1.50;99.90
51655;DHT22;37732;53.106;7.030;2022-12-18T16:12:45;-1.50;99.90
51655;DHT22;37732;53.106;7.030;2022-12-18T16:15:13;-1.50;99.90
51655;DHT22;37732;53.106;7.030;2022-12-18T16:17:43;-1.50;99.90
51655;DHT22;37732;53.106;7.030;2022-12-18T16:20:14;-1.50;99.90
51655;DHT22;37732;53.106;7.030;2022-12-18T16:22:41;-1.50;99.90
51655;DHT22;37732;53.106;7.030;2022-12-18T16:25:30;-1.30;99.90
51655;DHT22;37732;53.106;7.030;2022-12-18T16:27:56;-1.50;99.90
51655;DHT22;37732;53.106;7.030;2022-12-18T16:30:27;-1.50;99.90
51655;DHT22;37732;53.106;7.030;2022-12-18T16:32:57;-0.90;99.90
51655;DHT22;37732;53.106;7.030;2022-12-18T16:35:23;-1.20;99.90
51655;DHT22;37732;53.106;7.030;2022-12-18T16:37:49;-1.40;99.90
51655;DHT22;37732;53.106;7.030;2022-12-18T16:40:16;-1.50;99.90
51655;DHT22;37732;53.106;7.030;2022-12-18T16:42:46;-1.40;99.90
51655;DHT22;37732;53.106;7.030;2022-12-18T16:45:15;-1.40;99.90
51655;DHT22;37732;53.106;7.030;2022-12-18T16:47:41;-1.40;99.90
51655;DHT22;37732;53.106;7.030;2022-12-18T16:50:07;-1.40;99.90
51655;DHT22;37732;53.106;7.030;2022-12-18T16:52:34;-1.40;99.90
51655;DHT22;37732;53.106;7.030;2022-12-18T16:54:59;-1.40;99.90
51655;DHT22;37732;53.106;7.030;2022-12-18T16:57:25;-1.40;99.90
51655;DHT22;37732;53.106;7.030;2022-12-18T16:59:51;-1.30;99.90
51655;DHT22;37732;53.106;7.030;2022-12-18T17:02:20;-1.30;99.90
51655;DHT22;37732;53.106;7.030;2022-12-18T17:04:47;-1.30;99.90
51655;DHT22;37732;53.106;7.030;2022-12-18T17:07:13;-1.30;99.90
51655;DHT22;37732;53.106;7.030;2022-12-18T17:09:40;-1.30;99.90
51655;DHT22;37732;53.106;7.030;2022-12-18T17:12:06;-1.30;99.90
51655;DHT22;37732;53.106;7.030;2022-12-18T17:14:33;-1.30;99.90
51655;DHT22;37732;53.106;7.030;2022-12-18T17:16:59;-1.30;99.90
51655;DHT22;37732;53.106;7.030;2022-12-18T17:19:30;-1.20;99.90
51655;DHT22;37732;53.106;7.030;2022-12-18T17:21:56;-1.20;99.90
51655;DHT22;37732;53.106;7.030;2022-12-18T17:24:22;-1.20;99.90
51655;DHT22;37732;53.106;7.030;2022-12-18T17:26:47;-1.20;99.90
51655;DHT22;37732;53.106;7.030;2022-12-18T17:29:16;-1.20;99.90
51655;DHT22;37732;53.106;7.030;2022-12-18T17:31:42;-1.20;99.90
51655;DHT22;37732;53.106;7.030;2022-12-18T17:34:09;-0.90;99.90
51655;DHT22;37732;53.106;7.030;2022-12-18T17:36:35;-1.20;99.90
51655;DHT22;37732;53.106;7.030;2022-12-18T17:39:05;-1.20;99.90
51655;DHT22;37732;53.106;7.030;2022-12-18T17:41:31;-1.20;99.90
51655;DHT22;37732;53.106;7.030;2022-12-18T17:44:02;-1.10;99.90